createdAt,value
2019-05-18T00:00:26.557Z,5.9
2019-05-18T00:02:58.008Z,6.0
2019-05-18T00:05:29.527Z,6.2
2019-05-18T00:08:00.918Z,5.6
2019-05-18T00:10:32.496Z,6.1
2019-05-18T00:13:04.029Z,6.9
2019-05-18T00:15:36.113Z,6.5
2019-05-18T00:18:07.829Z,7.1
2019-05-18T00:20:39.546Z,7.4
2019-05-18T00:23:10.982Z,7.3
2019-05-18T00:25:42.722Z,7.9
2019-05-18T00:28:14.231Z,7.4
2019-05-18T00:30:45.938Z,7.3
2019-05-18T00:33:17.362Z,7.3
2019-05-18T00:35:49.074Z,8.3
2019-05-18T00:38:20.523Z,9.1
2019-05-18T00:40:52.103Z,8.3
2019-05-18T00:43:23.502Z,9.1
2019-05-18T00:45:54.943Z,8.6
2019-05-18T00:48:26.416Z,8.6
2019-05-18T00:50:58.351Z,9.4
2019-05-18T00:53:29.811Z,10.0
2019-05-18T00:56:01.546Z,9.9
2019-05-18T00:58:32.996Z,10.0
2019-05-18T01:01:04.516Z,9.9
2019-05-18T01:03:35.958Z,10.5
2019-05-18T01:06:07.557Z,11.2
2019-05-18T01:08:39.052Z,10.8
2019-05-18T01:11:10.771Z,10.9
2019-05-18T01:13:42.143Z,10.7
2019-05-18T01:16:13.812Z,11.3
2019-05-18T01:18:45.339Z,11.7
2019-05-18T01:21:16.989Z,11.0
2019-05-18T01:23:48.418Z,10.8
2019-05-18T01:26:20.051Z,11.2
2019-05-18T01:28:51.506Z,11.5
2019-05-18T01:31:26.468Z,11.6
2019-05-18T01:33:59.449Z,11.8
2019-05-18T01:36:32.559Z,11.7
2019-05-18T01:39:04.090Z,11.7
2019-05-18T01:41:35.732Z,11.8
2019-05-18T01:44:07.282Z,12.2
2019-05-18T01:46:38.892Z,11.7
2019-05-18T01:49:10.441Z,11.0
2019-05-18T01:51:42.421Z,12.4
2019-05-18T01:54:13.871Z,12.2
2019-05-18T01:56:45.530Z,11.0
2019-05-18T01:59:16.994Z,11.3
2019-05-18T02:01:48.560Z,10.3
2019-05-18T02:04:19.998Z,10.7
2019-05-18T02:06:51.587Z,8.7
2019-05-18T02:09:23.108Z,7.7
2019-05-18T02:11:54.663Z,6.4
2019-05-18T02:14:26.299Z,5.7
2019-05-18T02:16:57.949Z,5.5
2019-05-18T02:19:29.453Z,5.2
2019-05-18T02:22:01.226Z,4.8
2019-05-18T02:24:32.720Z,4.8
2019-05-18T02:27:04.288Z,5.0
2019-05-18T02:29:35.771Z,4.9
2019-05-18T02:32:07.431Z,4.0
2019-05-18T02:34:38.810Z,4.3
2019-05-18T02:37:10.811Z,4.7
2019-05-18T02:39:42.424Z,4.1
2019-05-18T02:42:14.143Z,4.8
2019-05-18T02:44:45.620Z,3.8
2019-05-18T02:47:17.345Z,3.8
2019-05-18T02:49:48.750Z,3.3
2019-05-18T02:52:20.746Z,4.2
2019-05-18T02:54:52.219Z,4.1
2019-05-18T02:57:23.707Z,3.8
2019-05-18T02:59:55.249Z,4.4
2019-05-18T03:02:26.902Z,4.1
2019-05-18T03:04:58.405Z,4.7
2019-05-18T03:07:30.113Z,4.8
2019-05-18T03:10:01.629Z,4.6
2019-05-18T03:12:33.297Z,5.1
2019-05-18T03:15:04.832Z,6.5
2019-05-18T03:17:36.413Z,7.3
2019-05-18T03:20:08.002Z,7.7
2019-05-18T03:22:39.725Z,9.6
2019-05-18T03:25:11.058Z,9.7
2019-05-18T03:27:42.764Z,10.1
2019-05-18T03:31:25.234Z,10.5
2019-05-18T03:33:58.496Z,9.2
2019-05-18T03:36:31.492Z,8.8
2019-05-18T03:39:04.616Z,10.4
2019-05-18T03:41:37.487Z,9.8
2019-05-18T03:44:10.694Z,10.8
2019-05-18T03:46:42.147Z,10.0
2019-05-18T03:49:27.666Z,10.6
2019-05-18T03:51:54.553Z,9.8
2019-05-18T03:54:26.492Z,8.9
2019-05-18T03:56:57.921Z,8.4
2019-05-18T03:59:29.471Z,7.6
2019-05-18T04:02:00.959Z,8.4
2019-05-18T04:04:32.558Z,7.0
2019-05-18T04:07:04.048Z,7.6
2019-05-18T04:09:35.615Z,8.1
2019-05-18T04:12:07.067Z,7.0
2019-05-18T04:14:38.781Z,6.2
2019-05-18T04:17:10.259Z,5.8
2019-05-18T04:19:47.543Z,5.1
2019-05-18T04:22:19.110Z,5.4
2019-05-18T04:24:50.766Z,5.1
2019-05-18T04:27:22.170Z,4.7
2019-05-18T04:29:53.786Z,4.6
2019-05-18T04:32:25.170Z,4.7
2019-05-18T04:34:56.673Z,4.8
2019-05-18T04:37:28.283Z,4.6
2019-05-18T04:40:00.370Z,4.5
2019-05-18T04:42:31.841Z,4.6
2019-05-18T04:45:03.539Z,3.7
2019-05-18T04:47:35.038Z,3.7
2019-05-18T04:50:06.714Z,3.4
2019-05-18T04:52:38.265Z,3.2
2019-05-18T04:55:10.195Z,3.9
2019-05-18T04:57:41.624Z,3.4
2019-05-18T05:00:13.209Z,3.4
2019-05-18T05:02:44.737Z,4.0
2019-05-18T05:05:16.371Z,3.6
2019-05-18T05:07:47.739Z,3.7
2019-05-18T05:10:19.393Z,3.5
2019-05-18T05:12:50.935Z,3.4
2019-05-18T05:15:22.649Z,3.5
2019-05-18T05:17:54.144Z,3.7
2019-05-18T05:20:25.730Z,3.9
2019-05-18T05:22:57.210Z,3.5
2019-05-18T05:25:28.888Z,2.8
2019-05-18T05:28:00.353Z,2.5
2019-05-18T05:31:26.074Z,2.8
2019-05-18T05:33:59.063Z,2.3
2019-05-18T05:36:53.961Z,1.5
2019-05-18T05:39:26.931Z,1.7
2019-05-18T05:42:00.339Z,1.5
2019-05-18T05:44:33.260Z,1.7
2019-05-18T05:47:06.400Z,2.0
2019-05-18T05:49:37.802Z,1.7
2019-05-18T05:52:09.378Z,1.8
2019-05-18T05:54:40.869Z,1.8
2019-05-18T05:57:12.571Z,2.0
2019-05-18T05:59:43.975Z,1.6
2019-05-18T06:02:15.549Z,1.7
2019-05-18T06:04:47.165Z,1.6
2019-05-18T06:07:18.954Z,1.7
2019-05-18T06:09:50.391Z,2.1
2019-05-18T06:12:23.078Z,1.9
2019-05-18T06:14:55.429Z,2.5
2019-05-18T06:17:27.930Z,2.8
2019-05-18T06:20:01.107Z,2.8
2019-05-18T06:22:33.466Z,2.6
2019-05-18T06:25:11.390Z,3.0
2019-05-18T06:27:45.102Z,3.1
2019-05-18T06:30:18.833Z,3.6
2019-05-18T06:32:50.755Z,3.3
2019-05-18T06:35:23.522Z,3.4
2019-05-18T06:37:55.205Z,3.5
2019-05-18T06:40:27.003Z,3.6
2019-05-18T06:42:58.803Z,3.9
2019-05-18T06:45:30.259Z,3.3
2019-05-18T06:48:02.043Z,3.2
2019-05-18T06:50:33.610Z,3.0
2019-05-18T06:53:05.241Z,2.8
2019-05-18T06:55:36.876Z,3.3
2019-05-18T06:58:08.871Z,3.4
2019-05-18T07:00:40.400Z,3.8
2019-05-18T07:03:12.176Z,3.5
2019-05-18T07:05:43.597Z,3.6
2019-05-18T07:08:15.446Z,3.8
2019-05-18T07:10:46.961Z,3.3
2019-05-18T07:13:18.991Z,2.8
2019-05-18T07:15:50.515Z,3.0
2019-05-18T07:18:22.282Z,2.7
2019-05-18T07:20:53.804Z,2.3
2019-05-18T07:23:25.612Z,1.7
2019-05-18T07:25:57.084Z,1.9
2019-05-18T07:28:29.221Z,1.3
2019-05-18T07:31:25.433Z,1.2
2019-05-18T07:33:58.662Z,1.2
2019-05-18T07:36:30.163Z,1.3
2019-05-18T07:39:01.731Z,1.3
2019-05-18T07:41:46.981Z,1.7
2019-05-18T07:44:14.323Z,1.9
2019-05-18T07:46:45.766Z,1.8
2019-05-18T07:49:17.488Z,2.0
2019-05-18T07:51:48.961Z,1.8
2019-05-18T07:54:20.635Z,1.7
2019-05-18T07:56:52.120Z,1.7
2019-05-18T07:59:23.810Z,2.0
2019-05-18T08:01:55.250Z,2.2
2019-05-18T08:04:26.966Z,1.7
2019-05-18T08:06:58.376Z,1.5
2019-05-18T08:09:29.868Z,1.7
2019-05-18T08:12:01.203Z,1.7
2019-05-18T08:14:32.860Z,1.7
2019-05-18T08:17:04.214Z,1.8
2019-05-18T08:19:35.792Z,1.6
2019-05-18T08:22:07.328Z,1.9
2019-05-18T08:24:38.889Z,1.7
2019-05-18T08:27:10.377Z,1.5
2019-05-18T08:29:41.981Z,2.2
2019-05-18T08:32:13.391Z,1.7
2019-05-18T08:34:44.911Z,1.7
2019-05-18T08:37:16.425Z,1.6
2019-05-18T08:39:48.083Z,2.0
2019-05-18T08:42:19.473Z,2.2
2019-05-18T08:44:51.144Z,2.0
2019-05-18T08:47:22.748Z,2.0
2019-05-18T08:49:54.293Z,2.0
2019-05-18T08:52:25.650Z,2.0
2019-05-18T08:54:57.303Z,1.8
2019-05-18T08:57:28.929Z,1.8
2019-05-18T09:00:00.595Z,1.7
2019-05-18T09:02:32.115Z,1.5
2019-05-18T09:05:05.350Z,1.7
2019-05-18T09:07:36.763Z,1.3
2019-05-18T09:10:08.317Z,1.8
2019-05-18T09:12:39.851Z,1.7
2019-05-18T09:15:11.491Z,1.7
2019-05-18T09:17:43.087Z,1.2
2019-05-18T09:20:14.884Z,1.1
2019-05-18T09:22:46.304Z,1.4
2019-05-18T09:25:18.009Z,1.2
2019-05-18T09:27:49.432Z,1.1
2019-05-18T09:31:25.631Z,1.1
2019-05-18T09:33:57.094Z,1.0
2019-05-18T09:36:29.004Z,0.9
2019-05-18T09:39:00.365Z,1.0
2019-05-18T09:41:32.160Z,0.8
2019-05-18T09:44:03.742Z,0.9
2019-05-18T09:46:35.501Z,1.1
2019-05-18T09:49:06.940Z,1.1
2019-05-18T09:51:38.565Z,0.9
2019-05-18T09:54:10.049Z,1.1
2019-05-18T09:56:41.737Z,1.2
2019-05-18T09:59:13.250Z,1.2
2019-05-18T10:01:45.042Z,1.5
2019-05-18T10:04:16.475Z,1.3
2019-05-18T10:06:48.026Z,1.2
2019-05-18T10:09:19.594Z,1.1
2019-05-18T10:11:51.034Z,1.5
2019-05-18T10:14:22.511Z,1.6
2019-05-18T10:16:54.175Z,1.3
2019-05-18T10:19:25.730Z,1.5
2019-05-18T10:21:57.524Z,1.6
2019-05-18T10:24:28.931Z,1.5
2019-05-18T10:27:00.560Z,1.7
2019-05-18T10:29:32.262Z,1.6
2019-05-18T10:32:04.210Z,1.5
2019-05-18T10:34:35.737Z,1.8
2019-05-18T10:37:07.279Z,1.7
2019-05-18T10:39:39.100Z,1.6
2019-05-18T10:42:10.699Z,1.6
2019-05-18T10:44:42.125Z,1.5
2019-05-18T10:47:13.853Z,1.9
2019-05-18T10:49:45.298Z,1.7
2019-05-18T10:52:16.885Z,1.9
2019-05-18T10:54:48.396Z,2.2
2019-05-18T10:57:19.937Z,2.0
2019-05-18T10:59:51.429Z,1.6
2019-05-18T11:02:23.182Z,1.8
2019-05-18T11:04:54.888Z,2.0
2019-05-18T11:07:29.221Z,1.9
2019-05-18T11:10:00.630Z,1.9
2019-05-18T11:12:32.386Z,1.8
2019-05-18T11:15:03.953Z,2.2
2019-05-18T11:17:35.964Z,2.0
2019-05-18T11:20:07.629Z,2.3
2019-05-18T11:22:39.170Z,1.7
2019-05-18T11:25:10.593Z,2.1
2019-05-18T11:27:42.231Z,1.8
2019-05-18T11:31:24.884Z,2.3
2019-05-18T11:33:58.369Z,2.2
2019-05-18T11:36:31.419Z,2.1
2019-05-18T11:39:04.480Z,2.1
2019-05-18T11:41:37.454Z,2.3
2019-05-18T11:44:11.224Z,2.7
2019-05-18T11:46:44.208Z,2.6
2019-05-18T11:49:17.692Z,2.7
2019-05-18T11:51:50.574Z,2.9
2019-05-18T11:54:23.755Z,3.4
2019-05-18T11:56:56.779Z,3.9
2019-05-18T11:59:29.752Z,3.7
2019-05-18T12:02:02.775Z,4.0
2019-05-18T12:04:35.918Z,3.8
2019-05-18T12:07:07.437Z,4.2
2019-05-18T12:09:39.177Z,4.7
2019-05-18T12:12:10.636Z,3.8
2019-05-18T12:14:42.396Z,3.9
2019-05-18T12:17:13.962Z,3.7
2019-05-18T12:19:45.718Z,4.2
2019-05-18T12:22:17.351Z,3.6
2019-05-18T12:24:49.081Z,3.2
2019-05-18T12:27:20.661Z,3.7
2019-05-18T12:29:52.555Z,4.2
2019-05-18T12:32:24.077Z,4.0
2019-05-18T12:34:56.033Z,3.4
2019-05-18T12:37:27.507Z,3.7
2019-05-18T12:39:59.181Z,3.5
2019-05-18T12:42:30.854Z,3.4
2019-05-18T12:45:02.465Z,3.4
2019-05-18T12:47:33.747Z,3.7
2019-05-18T12:50:05.513Z,3.4
2019-05-18T12:52:36.984Z,3.4
2019-05-18T12:55:08.727Z,3.5
2019-05-18T12:57:40.318Z,3.7
2019-05-18T13:00:12.149Z,3.7
2019-05-18T13:02:43.755Z,3.5
2019-05-18T13:05:15.382Z,3.9
2019-05-18T13:07:46.824Z,4.1
2019-05-18T13:10:18.536Z,3.6
2019-05-18T13:12:49.915Z,3.4
2019-05-18T13:15:21.564Z,3.6
2019-05-18T13:17:52.995Z,4.2
2019-05-18T13:20:24.675Z,3.3
2019-05-18T13:22:56.107Z,3.8
2019-05-18T13:25:27.830Z,3.7
2019-05-18T13:27:59.348Z,3.7
2019-05-18T13:31:25.288Z,3.6
2019-05-18T13:33:58.309Z,3.9
2019-05-18T13:36:31.856Z,3.5
2019-05-18T13:39:04.850Z,3.6
2019-05-18T13:41:37.962Z,3.8
2019-05-18T13:44:09.313Z,3.7
2019-05-18T13:46:41.115Z,4.8
2019-05-18T13:49:12.816Z,4.1
2019-05-18T13:51:44.622Z,4.1
2019-05-18T13:54:16.089Z,4.4
2019-05-18T13:56:47.620Z,4.4
2019-05-18T13:59:19.284Z,4.4
2019-05-18T14:01:50.952Z,3.8
2019-05-18T14:04:22.480Z,3.6
2019-05-18T14:06:54.361Z,3.0
2019-05-18T14:09:25.887Z,2.8
2019-05-18T14:11:57.634Z,3.4
2019-05-18T14:14:29.061Z,3.7
2019-05-18T14:17:00.552Z,3.0
2019-05-18T14:19:32.057Z,2.5
2019-05-18T14:22:03.803Z,1.6
2019-05-18T14:24:35.201Z,1.7
2019-05-18T14:27:06.762Z,2.5
2019-05-18T14:29:38.276Z,2.9
2019-05-18T14:32:11.295Z,2.9
2019-05-18T14:34:42.903Z,2.8
2019-05-18T14:37:14.699Z,2.0
2019-05-18T14:39:46.220Z,2.0
2019-05-18T14:42:17.979Z,1.9
2019-05-18T14:44:49.383Z,1.7
2019-05-18T14:47:21.061Z,1.7
2019-05-18T14:49:52.570Z,2.0
2019-05-18T14:52:24.456Z,2.3
2019-05-18T14:54:55.961Z,2.2
2019-05-18T14:57:27.638Z,2.0
2019-05-18T15:00:02.778Z,1.1
2019-05-18T15:02:34.606Z,1.5
2019-05-18T15:05:06.080Z,2.0
2019-05-18T15:07:37.804Z,3.3
2019-05-18T15:10:09.267Z,4.4
2019-05-18T15:12:40.889Z,3.4
2019-05-18T15:15:12.298Z,2.9
2019-05-18T15:17:43.934Z,2.0
2019-05-18T15:20:15.411Z,1.8
2019-05-18T15:22:47.418Z,1.5
2019-05-18T15:25:18.899Z,1.6
2019-05-18T15:27:50.575Z,1.4
2019-05-18T15:31:25.752Z,1.4
2019-05-18T15:33:57.324Z,1.0
2019-05-18T15:36:28.804Z,1.1
2019-05-18T15:39:00.526Z,1.3
2019-05-18T15:41:32.212Z,1.0
2019-05-18T15:44:03.721Z,1.0
2019-05-18T15:46:35.258Z,1.4
2019-05-18T15:49:06.802Z,1.4
2019-05-18T15:51:38.242Z,1.3
2019-05-18T15:54:10.038Z,6.3
2019-05-18T15:56:44.482Z,2.0
2019-05-18T15:59:16.204Z,1.4
2019-05-18T16:01:47.815Z,1.6
2019-05-18T16:04:19.500Z,1.2
2019-05-18T16:06:51.796Z,0.9
2019-05-18T16:09:29.522Z,1.0
2019-05-18T16:12:01.274Z,1.3
2019-05-18T16:14:32.986Z,1.1
2019-05-18T16:17:04.476Z,1.2
2019-05-18T16:19:36.144Z,0.9
2019-05-18T16:22:07.578Z,1.0
2019-05-18T16:24:39.072Z,1.4
2019-05-18T16:27:10.507Z,1.0
2019-05-18T16:29:42.264Z,1.4
2019-05-18T16:32:13.835Z,1.2
2019-05-18T16:34:45.621Z,1.4
2019-05-18T16:37:17.269Z,1.8
2019-05-18T16:39:49.571Z,2.1
2019-05-18T16:42:21.118Z,1.5
2019-05-18T16:44:52.899Z,1.3
2019-05-18T16:47:24.611Z,1.5
2019-05-18T16:49:56.354Z,1.4
2019-05-18T16:52:27.852Z,1.9
2019-05-18T16:54:59.592Z,1.5
2019-05-18T16:57:31.104Z,1.6
2019-05-18T17:00:02.785Z,1.7
2019-05-18T17:02:34.280Z,1.9
2019-05-18T17:05:06.013Z,1.6
2019-05-18T17:07:37.405Z,2.1
2019-05-18T17:10:09.026Z,3.0
2019-05-18T17:12:40.687Z,2.7
2019-05-18T17:15:12.258Z,2.3
2019-05-18T17:17:43.686Z,1.7
2019-05-18T17:20:15.490Z,1.2
2019-05-18T17:22:47.032Z,1.0
2019-05-18T17:25:19.903Z,0.8
2019-05-18T17:27:51.256Z,1.0
2019-05-18T17:31:25.006Z,1.5
2019-05-18T17:33:57.992Z,1.1
2019-05-18T17:36:31.006Z,1.3
2019-05-18T17:39:03.993Z,0.9
2019-05-18T17:41:37.087Z,1.7
2019-05-18T17:44:10.070Z,1.8
2019-05-18T17:46:43.019Z,2.5
2019-05-18T17:49:27.229Z,2.5
2019-05-18T17:51:59.001Z,1.9
2019-05-18T17:54:32.198Z,2.0
2019-05-18T17:57:09.142Z,1.7
2019-05-18T17:59:42.290Z,4.1
2019-05-18T18:02:15.418Z,3.5
2019-05-18T18:04:48.498Z,3.4
2019-05-18T18:07:21.572Z,3.2
2019-05-18T18:09:54.465Z,2.6
2019-05-18T18:12:27.841Z,2.3
2019-05-18T18:15:00.863Z,2.2
2019-05-18T18:17:33.929Z,2.2
2019-05-18T18:20:06.880Z,2.3
2019-05-18T18:22:40.077Z,2.4
2019-05-18T18:25:11.507Z,2.3
2019-05-18T18:27:43.629Z,2.2
2019-05-18T18:30:15.115Z,2.2
2019-05-18T18:32:46.861Z,2.3
2019-05-18T18:35:18.358Z,2.7
2019-05-18T18:37:50.078Z,3.2
2019-05-18T18:40:21.478Z,5.9
2019-05-18T18:42:53.393Z,4.7
2019-05-18T18:45:24.869Z,4.2
2019-05-18T18:47:56.576Z,3.1
2019-05-18T18:50:28.069Z,3.2
2019-05-18T18:52:59.686Z,3.2
2019-05-18T18:55:31.016Z,3.3
2019-05-18T18:58:02.976Z,4.4
2019-05-18T19:00:34.527Z,3.9
2019-05-18T19:03:06.059Z,4.2
2019-05-18T19:05:37.547Z,3.9
2019-05-18T19:08:09.200Z,3.5
2019-05-18T19:10:40.575Z,3.7
2019-05-18T19:13:12.526Z,3.8
2019-05-18T19:15:43.957Z,4.2
2019-05-18T19:18:15.632Z,3.3
2019-05-18T19:20:47.166Z,2.8
2019-05-18T19:23:18.861Z,2.6
2019-05-18T19:25:50.287Z,2.6
2019-05-18T19:28:22.030Z,10.8
2019-05-18T19:31:25.678Z,6.0
2019-05-18T19:33:58.970Z,2.7
2019-05-18T19:36:31.942Z,2.7
2019-05-18T19:39:04.984Z,3.5
2019-05-18T19:41:37.903Z,22.6
2019-05-18T19:44:11.230Z,12.6
2019-05-18T19:46:44.239Z,4.3
2019-05-18T19:49:17.515Z,10.6
2019-05-18T19:51:54.057Z,6.2
2019-05-18T19:54:25.945Z,4.7
2019-05-18T19:56:57.638Z,2.9
2019-05-18T19:59:29.753Z,2.5
2019-05-18T20:02:01.348Z,2.1
2019-05-18T20:04:33.133Z,2.1
2019-05-18T20:07:04.613Z,1.7
2019-05-18T20:09:36.381Z,1.7
2019-05-18T20:12:07.890Z,1.8
2019-05-18T20:14:39.713Z,1.9
2019-05-18T20:17:11.255Z,1.9
2019-05-18T20:19:43.107Z,1.9
2019-05-18T20:22:14.611Z,2.1
2019-05-18T20:24:46.230Z,1.8
2019-05-18T20:27:17.740Z,1.7
2019-05-18T20:29:49.675Z,1.9
2019-05-18T20:32:21.229Z,2.2
2019-05-18T20:34:52.763Z,1.9
2019-05-18T20:37:24.375Z,2.3
2019-05-18T20:39:56.178Z,2.6
2019-05-18T20:42:27.562Z,2.0
2019-05-18T20:44:59.661Z,1.9
2019-05-18T20:47:31.157Z,2.1
2019-05-18T20:50:02.715Z,1.7
2019-05-18T20:52:34.217Z,1.7
2019-05-18T20:55:05.772Z,1.8
2019-05-18T20:57:37.351Z,1.7
2019-05-18T21:00:09.230Z,2.1
2019-05-18T21:02:40.768Z,2.2
2019-05-18T21:05:12.603Z,1.8
2019-05-18T21:07:44.162Z,2.3
2019-05-18T21:10:15.801Z,2.1
2019-05-18T21:12:47.293Z,2.2
2019-05-18T21:15:18.883Z,2.6
2019-05-18T21:17:50.307Z,2.3
2019-05-18T21:20:21.970Z,2.8
2019-05-18T21:22:53.385Z,3.0
2019-05-18T21:25:24.975Z,2.4
2019-05-18T21:27:56.515Z,2.7
2019-05-18T21:31:25.290Z,2.6
2019-05-18T21:33:58.291Z,2.4
2019-05-18T21:36:31.555Z,2.3
2019-05-18T21:39:03.017Z,2.4
2019-05-18T21:41:34.615Z,2.6
2019-05-18T21:44:06.059Z,3.0
2019-05-18T21:46:39.387Z,3.0
2019-05-18T21:49:10.901Z,3.0
2019-05-18T21:51:42.598Z,3.2
2019-05-18T21:54:14.165Z,3.5
2019-05-18T21:56:45.846Z,3.9
2019-05-18T21:59:17.319Z,3.4
2019-05-18T22:01:48.773Z,3.8
2019-05-18T22:04:20.238Z,3.6
2019-05-18T22:06:51.805Z,3.5
2019-05-18T22:09:23.337Z,2.4
2019-05-18T22:11:55.164Z,2.1
2019-05-18T22:14:26.707Z,1.7
2019-05-18T22:16:58.650Z,1.8
2019-05-18T22:19:30.127Z,1.6
2019-05-18T22:22:01.817Z,1.7
2019-05-18T22:24:33.360Z,1.8
2019-05-18T22:27:05.028Z,1.4
2019-05-18T22:29:36.408Z,1.6
2019-05-18T22:32:08.129Z,1.3
2019-05-18T22:34:39.628Z,1.3
2019-05-18T22:37:11.411Z,1.7
2019-05-18T22:39:42.929Z,1.4
2019-05-18T22:42:14.469Z,1.5
2019-05-18T22:44:45.932Z,1.5
2019-05-18T22:47:17.691Z,1.7
2019-05-18T22:49:49.163Z,1.2
2019-05-18T22:52:20.982Z,1.6
2019-05-18T22:54:52.426Z,1.7
2019-05-18T22:57:23.999Z,1.4
2019-05-18T22:59:55.528Z,1.3
2019-05-18T23:02:27.518Z,1.4
2019-05-18T23:04:59.167Z,1.3
2019-05-18T23:07:30.717Z,1.3
2019-05-18T23:10:02.351Z,1.1
2019-05-18T23:12:33.918Z,1.1
2019-05-18T23:15:05.338Z,1.1
2019-05-18T23:17:36.985Z,1.2
2019-05-18T23:20:08.378Z,1.1
2019-05-18T23:22:40.086Z,0.9
2019-05-18T23:25:11.554Z,1.4
2019-05-18T23:27:43.563Z,1.1
2019-05-18T23:31:25.091Z,1.2
2019-05-18T23:33:58.530Z,1.0
2019-05-18T23:36:31.692Z,1.1
2019-05-18T23:39:04.769Z,1.0
2019-05-18T23:41:37.642Z,0.9
2019-05-18T23:44:10.892Z,0.7
2019-05-18T23:46:42.379Z,0.6
2019-05-18T23:49:13.893Z,0.7
2019-05-18T23:51:45.340Z,0.7
2019-05-18T23:54:17.006Z,0.7
2019-05-18T23:56:48.667Z,0.4
2019-05-18T23:59:20.301Z,0.6
